createdAt,value
2023-03-17T00:00:23.480Z,1.58
2023-03-17T00:02:57.601Z,2.38
2023-03-17T00:05:32.471Z,1.38
2023-03-17T00:08:02.587Z,3.45
2023-03-17T00:10:36.499Z,2.78
2023-03-17T00:13:04.055Z,3.97
2023-03-17T00:18:05.613Z,3.22
2023-03-17T00:20:33.378Z,0.82
2023-03-17T00:23:10.664Z,1.25
2023-03-17T00:25:43.017Z,1.93
2023-03-17T00:28:20.698Z,2.05
2023-03-17T00:30:54.607Z,3.03
2023-03-17T00:33:24.482Z,2.05
2023-03-17T00:35:58.595Z,3.22
2023-03-17T00:38:26.109Z,1.20
2023-03-17T00:40:59.633Z,4.35
2023-03-17T00:43:29.746Z,3.50
2023-03-17T00:45:57.638Z,5.72
2023-03-17T00:48:31.746Z,2.15
2023-03-17T00:50:59.513Z,1.67
2023-03-17T00:53:27.068Z,4.63
2023-03-17T00:58:29.028Z,2.65
2023-03-17T01:01:03.669Z,2.35
2023-03-17T01:03:31.167Z,4.45
2023-03-17T01:05:58.278Z,2.67
2023-03-17T01:08:32.719Z,6.05
2023-03-17T01:11:00.360Z,4.70
2023-03-17T01:16:02.631Z,3.47
2023-03-17T01:18:29.889Z,6.30
2023-03-17T01:21:03.662Z,1.35
2023-03-17T01:23:31.685Z,7.35
2023-03-17T01:26:05.624Z,6.78
2023-03-17T01:28:33.466Z,5.00
2023-03-17T01:31:00.623Z,3.92
2023-03-17T01:33:34.632Z,4.15
2023-03-17T01:36:01.973Z,3.15
2023-03-17T01:38:36.626Z,3.55
2023-03-17T01:41:04.140Z,3.58
2023-03-17T01:46:23.673Z,3.67
2023-03-17T01:49:22.476Z,1.73
2023-03-17T01:52:05.545Z,4.22
2023-03-17T01:54:55.563Z,11.57
2023-03-17T01:57:35.524Z,3.85
2023-03-17T02:00:05.763Z,4.57
2023-03-17T02:02:41.500Z,1.25
2023-03-17T02:05:10.219Z,5.78
2023-03-17T02:07:44.665Z,3.92
2023-03-17T02:10:12.683Z,2.92
2023-03-17T05:53:20.601Z,5.53
2023-03-17T05:55:47.789Z,3.42
2023-03-17T05:58:16.683Z,4.40
2023-03-17T06:00:50.711Z,3.92
2023-03-17T06:03:17.954Z,4.63
2023-03-17T06:05:45.834Z,7.93
2023-03-17T06:08:19.651Z,12.70
2023-03-17T06:10:47.596Z,6.55
2023-03-17T06:13:21.827Z,7.35
2023-03-17T06:15:49.222Z,12.20
2023-03-17T06:18:16.377Z,6.85
2023-03-17T06:20:49.663Z,4.85
2023-03-17T06:23:17.326Z,8.02
2023-03-17T06:25:50.772Z,9.23
2023-03-17T06:28:18.481Z,7.05
2023-03-17T06:30:45.696Z,10.20
2023-03-17T06:33:19.633Z,11.48
2023-03-17T06:35:46.927Z,6.50
2023-03-17T06:38:21.148Z,6.45
2023-03-17T06:40:48.327Z,9.65
2023-03-17T06:43:15.618Z,7.00
2023-03-17T06:45:49.771Z,5.85
2023-03-17T06:48:17.663Z,9.13
2023-03-17T06:50:47.377Z,7.07
2023-03-17T06:53:21.765Z,8.70
2023-03-17T06:55:48.963Z,7.65
2023-03-17T06:58:23.691Z,8.27
2023-03-17T07:00:53.984Z,13.25
2023-03-17T07:03:22.539Z,8.25
2023-03-17T07:05:56.647Z,10.48
2023-03-17T07:08:23.934Z,9.10
2023-03-17T07:10:57.832Z,8.45
2023-03-17T07:13:25.813Z,10.10
2023-03-17T07:15:55.351Z,5.40
2023-03-17T07:18:29.751Z,9.35
2023-03-17T07:20:57.399Z,9.05
2023-03-17T07:25:58.091Z,8.38
2023-03-17T07:28:25.436Z,9.00
2023-03-17T07:31:00.358Z,8.88
2023-03-17T07:33:27.577Z,12.88
2023-03-17T07:36:01.792Z,7.32
2023-03-17T07:38:29.025Z,7.40
2023-03-17T07:40:56.436Z,8.82
2023-03-17T07:43:29.777Z,10.40
2023-03-17T07:45:57.112Z,7.65
2023-03-17T07:48:24.223Z,7.57
2023-03-17T07:50:57.714Z,8.10
2023-03-17T07:53:44.584Z,8.07
2023-03-17T07:56:18.961Z,9.23
2023-03-17T07:58:46.087Z,10.82
2023-03-17T08:01:13.281Z,9.07
2023-03-17T08:03:52.841Z,10.07
2023-03-17T08:06:20.439Z,6.90
2023-03-17T08:09:01.830Z,10.18
2023-03-17T08:11:29.629Z,10.18
2023-03-17T08:13:56.878Z,9.57
2023-03-17T08:16:30.887Z,14.98
2023-03-17T08:18:58.944Z,10.95
2023-03-17T08:21:33.907Z,11.55
2023-03-17T08:24:01.640Z,8.95
2023-03-17T08:26:28.725Z,9.07
2023-03-17T08:29:02.707Z,15.27
2023-03-17T08:31:30.166Z,7.00
2023-03-17T08:33:57.562Z,8.93
2023-03-17T08:36:31.720Z,8.05
2023-03-17T08:38:59.190Z,9.95
2023-03-17T08:41:33.889Z,8.55
2023-03-17T08:44:01.085Z,12.35
2023-03-17T08:46:31.237Z,16.48
2023-03-17T08:49:05.784Z,12.10
2023-03-17T08:51:34.729Z,11.75
2023-03-17T08:54:15.793Z,12.82
2023-03-17T08:56:43.198Z,13.73
2023-03-17T08:59:10.892Z,9.80
2023-03-17T09:01:44.724Z,10.00
2023-03-17T09:04:11.904Z,7.93
2023-03-17T09:07:01.888Z,8.05
2023-03-17T09:09:31.084Z,11.18
2023-03-17T09:12:04.682Z,8.45
2023-03-17T09:14:43.833Z,11.82
2023-03-17T09:17:11.814Z,11.15
2023-03-17T09:19:45.622Z,9.90
2023-03-17T09:22:14.263Z,11.75
2023-03-17T09:24:41.962Z,11.65
2023-03-17T09:27:15.753Z,14.27
2023-03-17T09:29:42.999Z,8.93
2023-03-17T09:32:16.813Z,8.70
2023-03-17T09:34:43.929Z,16.98
2023-03-17T09:37:17.716Z,13.48
2023-03-17T09:39:44.792Z,8.18
2023-03-17T09:42:15.029Z,9.55
2023-03-17T09:45:05.801Z,8.88
2023-03-17T09:47:40.086Z,8.82
2023-03-17T09:50:20.742Z,9.60
2023-03-17T09:52:54.786Z,9.57
2023-03-17T09:55:36.782Z,8.38
2023-03-17T09:58:04.455Z,8.25
2023-03-17T10:03:08.129Z,11.68
2023-03-17T10:05:36.449Z,11.13
2023-03-17T10:08:31.271Z,13.18
2023-03-17T10:11:02.703Z,12.38
2023-03-17T10:13:55.735Z,12.05
2023-03-17T10:16:32.638Z,12.43
2023-03-17T10:19:28.708Z,11.25
2023-03-17T10:22:08.623Z,11.85
2023-03-17T10:24:43.748Z,12.82
2023-03-17T10:27:17.626Z,19.50
2023-03-17T10:29:51.714Z,10.77
2023-03-17T10:32:25.605Z,17.20
2023-03-17T10:34:52.837Z,17.38
2023-03-17T10:37:27.611Z,12.40
2023-03-17T10:39:56.978Z,12.75
2023-03-17T10:42:32.631Z,11.80
2023-03-17T10:45:08.929Z,11.00
2023-03-17T10:47:44.604Z,10.25
2023-03-17T10:50:26.176Z,10.30
2023-03-17T10:53:01.647Z,9.85
2023-03-17T10:55:36.970Z,12.73
2023-03-17T10:58:12.702Z,10.23
2023-03-17T11:00:40.043Z,10.10
2023-03-17T11:03:12.364Z,14.00
2023-03-17T11:05:45.646Z,9.35
2023-03-17T11:08:18.609Z,9.32
2023-03-17T11:10:52.773Z,12.80
2023-03-17T11:13:19.869Z,13.02
2023-03-17T11:16:19.811Z,11.10
2023-03-17T11:18:48.383Z,10.43
2023-03-17T11:21:30.815Z,11.52
2023-03-17T11:24:12.909Z,8.80
2023-03-17T11:26:50.828Z,12.07
2023-03-17T11:29:23.941Z,6.13
2023-03-17T11:32:27.894Z,12.25
2023-03-17T11:35:01.472Z,9.15
2023-03-17T11:37:35.770Z,10.20
2023-03-17T11:40:21.546Z,11.02
2023-03-17T11:43:15.700Z,10.07
2023-03-17T11:45:55.304Z,8.20
2023-03-17T11:48:38.725Z,11.98
2023-03-17T11:51:11.551Z,8.10
2023-03-17T11:54:00.842Z,11.73
2023-03-17T11:56:37.619Z,11.48
2023-03-17T11:59:13.851Z,11.55
2023-03-17T12:02:07.293Z,11.27
2023-03-17T12:04:45.842Z,11.48
2023-03-17T12:07:21.309Z,11.60
2023-03-17T12:10:01.955Z,11.13
2023-03-17T12:12:31.009Z,11.82
2023-03-17T12:14:59.642Z,12.10
2023-03-17T12:17:44.648Z,11.60
2023-03-17T12:20:25.564Z,9.90
2023-03-17T12:23:02.789Z,10.85
2023-03-17T12:25:35.030Z,12.03
2023-03-17T12:28:15.792Z,10.75
2023-03-17T12:30:52.882Z,10.45
2023-03-17T12:33:32.636Z,11.45
2023-03-17T12:36:01.102Z,12.38
2023-03-17T12:38:34.726Z,11.60
2023-03-17T12:41:05.581Z,11.05
2023-03-17T12:43:59.942Z,12.13
2023-03-17T12:46:48.162Z,13.85
2023-03-17T12:49:39.657Z,13.73
2023-03-17T12:52:14.269Z,13.90
2023-03-17T12:54:58.819Z,10.05
2023-03-17T12:57:39.277Z,10.10
2023-03-17T13:00:22.880Z,14.77
2023-03-17T13:02:51.499Z,11.82
2023-03-17T13:05:34.900Z,10.00
2023-03-17T13:08:02.754Z,8.48
2023-03-17T13:10:49.933Z,12.05
2023-03-17T13:13:37.667Z,12.27
2023-03-17T13:16:12.999Z,14.13
2023-03-17T13:18:42.970Z,9.23
2023-03-17T13:21:12.298Z,11.57
2023-03-17T13:23:48.739Z,8.75
2023-03-17T13:26:19.388Z,12.30
2023-03-17T13:28:54.781Z,32.25
2023-03-17T13:31:29.107Z,23.20
2023-03-17T13:34:10.798Z,28.08
2023-03-17T13:36:46.784Z,27.85
2023-03-17T13:39:56.672Z,12.32
2023-03-17T13:42:34.721Z,14.15
2023-03-17T13:45:17.786Z,9.68
2023-03-17T13:47:45.992Z,11.75
2023-03-17T13:50:30.709Z,7.43
2023-03-17T13:53:10.448Z,9.35
2023-03-17T13:56:09.859Z,13.80
2023-03-17T14:01:07.346Z,10.18
2023-03-17T14:03:43.813Z,14.93
2023-03-17T14:06:12.886Z,14.60
2023-03-17T14:08:50.842Z,8.63
2023-03-17T14:11:36.210Z,10.85
2023-03-17T14:14:33.041Z,16.38
2023-03-17T14:17:19.430Z,11.30
2023-03-17T14:20:12.721Z,11.82
2023-03-17T14:22:45.561Z,9.93
2023-03-17T14:25:42.669Z,11.85
2023-03-17T14:28:12.998Z,15.18
2023-03-17T14:30:46.846Z,10.88
2023-03-17T14:33:20.749Z,12.20
2023-03-17T14:35:56.830Z,15.60
2023-03-17T14:38:28.778Z,17.95
2023-03-17T14:41:22.879Z,14.63
2023-03-17T14:43:52.135Z,14.00
2023-03-17T14:46:31.872Z,13.63
2023-03-17T14:49:01.221Z,13.05
2023-03-17T14:51:31.318Z,11.43
2023-03-17T14:54:08.781Z,12.90
2023-03-17T14:56:37.400Z,11.00
2023-03-17T14:59:15.852Z,14.95
2023-03-17T15:01:44.522Z,10.73
2023-03-17T15:04:23.815Z,12.18
2023-03-17T15:06:54.960Z,11.60
2023-03-17T15:09:32.787Z,12.80
2023-03-17T15:12:32.306Z,15.55
2023-03-17T15:17:34.400Z,12.38
2023-03-17T15:20:04.923Z,15.35
2023-03-17T15:22:41.735Z,14.43
2023-03-17T15:25:33.802Z,14.95
2023-03-17T15:28:07.769Z,14.70
2023-03-17T15:30:46.621Z,11.10
2023-03-17T15:33:28.896Z,10.27
2023-03-17T15:36:02.471Z,17.45
2023-03-17T15:38:36.835Z,12.73
2023-03-17T15:41:03.927Z,13.75
2023-03-17T15:43:37.797Z,10.43
2023-03-17T15:46:07.149Z,18.25
2023-03-17T15:48:36.328Z,12.82
2023-03-17T15:51:09.855Z,16.92
2023-03-17T15:53:43.796Z,14.73
2023-03-17T15:56:25.768Z,14.02
2023-03-17T15:58:52.903Z,15.70
2023-03-17T16:01:20.743Z,12.50
2023-03-17T16:03:54.943Z,17.42
2023-03-17T16:06:22.636Z,13.57
2023-03-17T16:11:30.341Z,14.38
2023-03-17T16:14:06.013Z,16.42
2023-03-17T16:16:33.466Z,12.57
2023-03-17T16:19:00.761Z,15.63
2023-03-17T16:21:35.808Z,18.10
2023-03-17T16:24:03.035Z,14.98
2023-03-17T16:26:30.333Z,14.15
2023-03-17T16:29:04.685Z,14.88
2023-03-17T16:31:38.724Z,20.08
2023-03-17T16:34:15.065Z,13.38
2023-03-17T16:36:50.789Z,12.95
2023-03-17T16:39:22.552Z,14.63
2023-03-17T16:41:59.846Z,19.88
2023-03-17T16:44:27.671Z,16.07
2023-03-17T16:46:54.941Z,16.95
2023-03-17T16:49:29.773Z,20.90
2023-03-17T16:51:56.938Z,13.07
2023-03-17T16:54:30.840Z,17.23
2023-03-17T16:57:07.621Z,19.88
2023-03-17T16:59:41.769Z,15.85
2023-03-17T17:02:16.752Z,15.80
2023-03-17T17:04:50.911Z,19.08
2023-03-17T17:07:18.088Z,19.20
2023-03-17T17:09:45.270Z,15.70
2023-03-17T17:12:18.928Z,18.60
2023-03-17T17:14:46.204Z,17.00
2023-03-17T17:17:13.670Z,21.48
2023-03-17T17:19:47.762Z,17.00
2023-03-17T17:22:15.398Z,21.77
2023-03-17T17:24:48.749Z,16.42
2023-03-17T17:27:15.885Z,18.75
2023-03-17T17:29:50.015Z,22.42
2023-03-17T17:32:18.973Z,20.55
2023-03-17T17:34:46.189Z,19.42
2023-03-17T17:37:19.769Z,24.23
2023-03-17T17:39:46.892Z,18.20
2023-03-17T17:42:20.894Z,20.02
2023-03-17T17:44:48.160Z,21.35
2023-03-17T17:47:15.693Z,21.90
2023-03-17T17:49:49.777Z,14.52
2023-03-17T17:52:18.101Z,19.02
2023-03-17T17:54:51.731Z,17.67
2023-03-17T17:57:19.226Z,20.85
2023-03-17T18:02:20.412Z,16.02
2023-03-17T18:04:47.795Z,22.35
2023-03-17T18:07:21.772Z,20.50
2023-03-17T18:09:49.226Z,21.15
2023-03-17T18:14:49.735Z,21.83
2023-03-17T18:17:21.666Z,17.77
2023-03-17T18:19:55.926Z,19.77
2023-03-17T18:22:23.096Z,19.42
2023-03-17T18:24:50.552Z,23.42
2023-03-17T18:27:23.797Z,26.33
2023-03-17T18:29:50.966Z,23.38
2023-03-17T18:32:24.959Z,20.70
2023-03-17T18:34:52.210Z,22.20
2023-03-17T18:37:19.608Z,24.75
2023-03-17T18:40:12.044Z,19.00
2023-03-17T18:42:48.064Z,25.35
2023-03-17T18:45:21.879Z,19.70
2023-03-17T18:47:55.870Z,21.95
2023-03-17T18:50:30.152Z,20.52
2023-03-17T18:52:57.430Z,24.58
2023-03-17T18:55:44.050Z,21.48
2023-03-17T18:58:11.446Z,19.13
2023-03-17T19:00:38.620Z,27.20
2023-03-17T19:03:12.873Z,24.35
2023-03-17T19:05:40.992Z,22.65
2023-03-17T19:08:15.103Z,20.75
2023-03-17T19:10:43.992Z,44.30
2023-03-17T19:13:11.108Z,64.88
2023-03-17T19:15:44.896Z,24.35
2023-03-17T19:18:12.158Z,24.90
2023-03-17T19:20:46.067Z,19.08
2023-03-17T19:23:13.661Z,22.70
2023-03-17T19:28:14.829Z,30.83
2023-03-17T19:30:44.871Z,22.13
2023-03-17T19:33:18.960Z,38.13
2023-03-17T19:35:47.238Z,24.17
2023-03-17T19:38:14.386Z,22.48
2023-03-17T19:40:48.838Z,20.27
2023-03-17T19:43:28.847Z,22.40
2023-03-17T19:46:10.123Z,23.90
2023-03-17T19:48:37.560Z,25.40
2023-03-17T19:51:04.888Z,26.55
2023-03-17T19:53:38.916Z,28.92
2023-03-17T19:56:12.771Z,20.52
2023-03-17T19:58:47.081Z,23.98
2023-03-17T20:01:14.767Z,27.20
2023-03-17T20:03:42.687Z,27.73
2023-03-17T20:06:17.127Z,23.88
2023-03-17T20:08:44.559Z,29.60
2023-03-17T20:11:12.472Z,27.17
2023-03-17T20:13:46.839Z,27.95
2023-03-17T20:16:17.245Z,30.00
2023-03-17T20:18:44.414Z,25.90
2023-03-17T20:21:20.998Z,24.85
2023-03-17T20:23:48.253Z,25.50
2023-03-17T20:26:22.001Z,31.45
2023-03-17T20:28:49.188Z,27.15
2023-03-17T20:31:17.132Z,29.95
2023-03-17T20:33:50.931Z,31.48
2023-03-17T20:36:18.164Z,33.72
2023-03-17T20:38:52.126Z,38.03
2023-03-17T20:41:20.970Z,33.13
2023-03-17T20:43:48.180Z,32.25
2023-03-17T20:46:23.063Z,30.85
2023-03-17T20:48:58.255Z,29.25
2023-03-17T20:51:32.929Z,28.25
2023-03-17T20:54:08.309Z,32.13
2023-03-17T20:56:48.965Z,31.17
2023-03-17T20:59:16.711Z,27.52
2023-03-17T21:01:45.114Z,31.17
2023-03-17T21:04:21.765Z,27.10
2023-03-17T21:06:49.746Z,30.75
2023-03-17T21:09:23.998Z,29.98
2023-03-17T21:11:51.265Z,28.63
2023-03-17T21:14:18.369Z,27.25
2023-03-17T21:16:54.053Z,30.65
2023-03-17T21:19:21.898Z,33.55
2023-03-17T21:21:49.018Z,27.88
2023-03-17T21:24:30.884Z,26.55
2023-03-17T21:26:59.643Z,26.85
2023-03-17T21:29:33.906Z,28.38
2023-03-17T21:32:04.926Z,29.75
2023-03-17T21:34:38.891Z,33.25
2023-03-17T21:37:06.167Z,32.38
2023-03-17T21:39:33.915Z,36.15
2023-03-17T21:42:09.116Z,25.77
2023-03-17T21:44:36.231Z,29.67
2023-03-17T21:47:09.958Z,30.20
2023-03-17T21:49:37.233Z,24.92
2023-03-17T21:52:04.773Z,22.35
2023-03-17T21:57:13.346Z,30.98
2023-03-17T21:59:46.955Z,27.98
2023-03-17T22:02:17.499Z,25.80
2023-03-17T22:04:46.687Z,28.48
2023-03-17T22:07:20.970Z,25.42
2023-03-17T22:09:48.227Z,27.33
2023-03-17T22:12:22.111Z,27.98
2023-03-17T22:14:49.350Z,33.60
2023-03-17T22:17:16.802Z,30.13
2023-03-17T22:19:50.832Z,30.50
2023-03-17T22:22:18.508Z,28.00
2023-03-17T22:24:45.819Z,30.52
2023-03-17T22:27:20.827Z,28.25
2023-03-17T22:29:48.111Z,28.23
2023-03-17T22:32:21.885Z,31.65
2023-03-17T22:34:48.976Z,24.10
2023-03-17T22:37:23.119Z,26.33
2023-03-17T22:39:50.240Z,26.48
2023-03-17T22:42:17.600Z,22.10
2023-03-17T22:44:51.005Z,30.38
2023-03-17T22:47:18.199Z,32.22
2023-03-17T22:49:51.931Z,30.60
2023-03-17T22:52:19.156Z,32.20
2023-03-17T22:55:06.059Z,26.45
2023-03-17T22:57:33.435Z,30.48
2023-03-17T23:00:00.536Z,30.73
2023-03-17T23:02:33.897Z,28.23
2023-03-17T23:05:01.130Z,28.55
2023-03-17T23:07:47.804Z,35.03
2023-03-17T23:12:51.087Z,32.08
2023-03-17T23:15:18.914Z,35.67
2023-03-17T23:17:47.023Z,27.30
2023-03-17T23:20:21.835Z,27.77
2023-03-17T23:22:49.005Z,30.83
2023-03-17T23:25:22.997Z,33.88
2023-03-17T23:27:50.793Z,33.03
2023-03-17T23:30:17.956Z,28.45
2023-03-17T23:32:51.853Z,37.58
2023-03-17T23:35:20.409Z,27.48
2023-03-17T23:37:54.025Z,32.35
2023-03-17T23:40:22.110Z,31.80
2023-03-17T23:42:49.259Z,35.33
2023-03-17T23:45:24.940Z,30.88
2023-03-17T23:47:52.820Z,29.85
2023-03-17T23:50:28.141Z,39.40
2023-03-17T23:52:55.346Z,29.95
2023-03-17T23:55:41.893Z,36.95
2023-03-17T23:58:09.068Z,32.53
